createdAt,value
2019-05-17T00:00:01.583Z,55.08
2019-05-17T00:02:03.211Z,55.10
2019-05-17T00:04:07.039Z,55.15
2019-05-17T00:06:06.894Z,55.09
2019-05-17T00:08:08.154Z,55.10
2019-05-17T00:10:09.768Z,55.37
2019-05-17T00:12:11.485Z,55.25
2019-05-17T00:14:13.085Z,55.20
2019-05-17T00:16:14.688Z,55.20
2019-05-17T00:18:17.141Z,55.18
2019-05-17T00:20:18.092Z,55.19
2019-05-17T00:22:19.722Z,55.50
2019-05-17T00:24:21.318Z,55.41
2019-05-17T00:26:22.931Z,55.49
2019-05-17T00:28:26.732Z,55.34
2019-05-17T00:30:26.676Z,55.38
2019-05-17T00:32:27.924Z,55.39
2019-05-17T00:34:29.531Z,55.74
2019-05-17T00:36:31.149Z,56.11
2019-05-17T00:38:45.583Z,56.61
2019-05-17T00:40:36.545Z,56.75
2019-05-17T00:42:37.251Z,56.64
2019-05-17T00:44:37.764Z,56.39
2019-05-17T00:46:39.354Z,56.35
2019-05-17T00:48:40.949Z,56.29
2019-05-17T00:50:42.609Z,56.13
2019-05-17T00:52:44.236Z,56.02
2019-05-17T00:54:46.912Z,56.09
2019-05-17T00:56:47.496Z,55.97
2019-05-17T00:58:49.090Z,55.76
2019-05-17T01:00:50.701Z,55.94
2019-05-17T01:02:52.328Z,55.90
2019-05-17T01:04:53.935Z,55.93
2019-05-17T01:06:56.271Z,55.81
2019-05-17T01:09:03.481Z,55.84
2019-05-17T01:10:58.848Z,56.20
2019-05-17T01:13:00.482Z,56.01
2019-05-17T01:15:02.121Z,55.80
2019-05-17T01:17:03.752Z,55.89
2019-05-17T01:19:06.802Z,55.89
2019-05-17T01:21:07.184Z,56.11
2019-05-17T01:23:08.796Z,56.18
2019-05-17T01:25:10.426Z,56.01
2019-05-17T01:27:12.036Z,56.15
2019-05-17T01:29:13.671Z,56.16
2019-05-17T01:31:17.222Z,56.16
2019-05-17T01:33:17.263Z,56.32
2019-05-17T01:35:18.587Z,56.40
2019-05-17T01:37:20.172Z,56.43
2019-05-17T01:39:21.770Z,56.42
2019-05-17T01:41:23.375Z,56.75
2019-05-17T01:43:27.207Z,57.08
2019-05-17T01:45:26.980Z,57.34
2019-05-17T01:47:28.311Z,57.95
2019-05-17T01:49:29.918Z,58.87
2019-05-17T01:51:31.518Z,57.55
2019-05-17T01:53:33.123Z,56.33
2019-05-17T01:55:37.186Z,56.26
2019-05-17T01:57:37.001Z,56.10
2019-05-17T01:59:38.022Z,56.29
2019-05-17T02:01:39.632Z,56.18
2019-05-17T02:03:41.276Z,56.50
2019-05-17T02:05:42.874Z,56.31
2019-05-17T02:07:46.464Z,56.13
2019-05-17T02:09:47.697Z,55.98
2019-05-17T02:11:47.757Z,55.95
2019-05-17T02:13:49.354Z,56.11
2019-05-17T02:15:50.964Z,55.92
2019-05-17T02:17:52.567Z,56.06
2019-05-17T02:19:54.169Z,56.09
2019-05-17T02:21:57.012Z,56.05
2019-05-17T02:23:57.388Z,56.13
2019-05-17T02:25:59.027Z,56.34
2019-05-17T02:28:01.520Z,56.16
2019-05-17T02:30:02.953Z,56.24
2019-05-17T02:32:04.180Z,56.41
2019-05-17T02:34:05.561Z,56.24
2019-05-17T02:36:07.165Z,55.93
2019-05-17T02:38:08.775Z,56.46
2019-05-17T02:40:13.936Z,56.38
2019-05-17T02:42:13.780Z,56.04
2019-05-17T02:44:13.720Z,56.57
2019-05-17T02:46:15.328Z,56.14
2019-05-17T02:48:16.927Z,56.36
2019-05-17T02:50:18.545Z,56.46
2019-05-17T02:52:22.801Z,56.71
2019-05-17T02:54:23.488Z,56.39
2019-05-17T02:56:23.501Z,56.66
2019-05-17T02:58:25.084Z,56.77
2019-05-17T03:00:26.740Z,56.57
2019-05-17T03:02:28.370Z,56.48
2019-05-17T03:04:32.622Z,56.33
2019-05-17T03:06:32.962Z,56.50
2019-05-17T03:08:34.397Z,56.49
2019-05-17T03:10:34.977Z,56.55
2019-05-17T03:12:36.587Z,56.44
2019-05-17T03:14:38.201Z,56.54
2019-05-17T03:16:42.749Z,56.40
2019-05-17T03:18:43.819Z,56.52
2019-05-17T03:20:43.345Z,56.45
2019-05-17T03:22:44.756Z,56.46
2019-05-17T03:24:46.383Z,56.42
2019-05-17T03:26:48.018Z,56.45
2019-05-17T03:28:49.628Z,56.55
2019-05-17T03:30:56.479Z,56.92
2019-05-17T03:32:56.112Z,56.98
2019-05-17T03:34:56.343Z,57.00
2019-05-17T03:36:57.078Z,56.98
2019-05-17T03:38:58.163Z,57.34
2019-05-17T03:41:13.455Z,57.30
2019-05-17T03:43:02.867Z,57.56
2019-05-17T03:45:03.305Z,57.35
2019-05-17T03:47:04.987Z,57.51
2019-05-17T03:49:06.636Z,57.50
2019-05-17T03:51:08.232Z,57.96
2019-05-17T03:53:12.895Z,57.98
2019-05-17T03:55:13.154Z,57.48
2019-05-17T03:57:13.506Z,57.34
2019-05-17T03:59:14.905Z,57.42
2019-05-17T04:01:16.511Z,57.52
2019-05-17T04:03:18.145Z,57.18
2019-05-17T04:05:22.460Z,57.18
2019-05-17T04:07:23.570Z,57.10
2019-05-17T04:09:23.142Z,56.71
2019-05-17T04:11:31.534Z,56.91
2019-05-17T04:13:26.409Z,56.97
2019-05-17T04:15:28.012Z,56.96
2019-05-17T04:17:32.552Z,57.16
2019-05-17T04:19:33.759Z,57.22
2019-05-17T04:21:34.280Z,57.35
2019-05-17T04:23:34.683Z,57.64
2019-05-17T04:25:38.720Z,57.51
2019-05-17T04:27:37.950Z,57.58
2019-05-17T04:29:42.424Z,57.63
2019-05-17T04:31:43.467Z,57.56
2019-05-17T04:33:43.269Z,57.57
2019-05-17T04:35:44.592Z,57.51
2019-05-17T04:37:46.230Z,57.15
2019-05-17T04:39:47.844Z,57.26
2019-05-17T04:41:53.854Z,57.05
2019-05-17T04:43:53.196Z,57.07
2019-05-17T04:45:53.600Z,56.96
2019-05-17T04:47:54.396Z,56.97
2019-05-17T04:49:56.031Z,57.19
2019-05-17T04:51:57.646Z,57.11
2019-05-17T04:53:59.269Z,57.00
2019-05-17T04:56:03.093Z,57.04
2019-05-17T04:58:03.874Z,57.51
2019-05-17T05:00:04.478Z,57.32
2019-05-17T05:02:05.927Z,57.18
2019-05-17T05:04:07.529Z,57.44
2019-05-17T05:06:09.118Z,57.59
2019-05-17T05:08:13.008Z,57.51
2019-05-17T05:10:13.446Z,57.46
2019-05-17T05:12:14.075Z,57.48
2019-05-17T05:14:15.699Z,57.46
2019-05-17T05:16:17.304Z,57.54
2019-05-17T05:18:21.875Z,57.90
2019-05-17T05:20:22.155Z,57.70
2019-05-17T05:22:22.547Z,57.51
2019-05-17T05:24:24.020Z,57.75
2019-05-17T05:26:25.604Z,57.91
2019-05-17T05:28:27.198Z,58.41
2019-05-17T05:30:28.798Z,58.46
2019-05-17T05:32:31.558Z,58.28
2019-05-17T05:34:32.278Z,58.42
2019-05-17T05:36:33.724Z,58.49
2019-05-17T05:38:35.322Z,58.19
2019-05-17T05:40:36.918Z,58.39
2019-05-17T05:42:38.568Z,58.21
2019-05-17T05:44:41.551Z,58.35
2019-05-17T05:46:42.306Z,58.51
2019-05-17T05:48:43.700Z,58.23
2019-05-17T05:50:45.295Z,58.11
2019-05-17T05:52:46.940Z,58.07
2019-05-17T05:54:48.552Z,57.86
2019-05-17T05:56:52.350Z,57.89
2019-05-17T05:58:52.288Z,57.77
2019-05-17T06:00:53.445Z,57.73
2019-05-17T06:02:55.092Z,57.85
2019-05-17T06:04:56.691Z,57.77
2019-05-17T06:06:58.285Z,57.83
2019-05-17T06:08:59.882Z,57.92
2019-05-17T06:11:02.151Z,57.94
2019-05-17T06:13:03.376Z,58.30
2019-05-17T06:15:04.870Z,58.12
2019-05-17T06:17:06.453Z,57.86
2019-05-17T06:19:08.050Z,58.06
2019-05-17T06:21:12.039Z,58.08
2019-05-17T06:23:12.366Z,57.64
2019-05-17T06:25:15.572Z,57.64
2019-05-17T06:27:15.016Z,57.34
2019-05-17T06:29:16.631Z,57.27
2019-05-17T06:31:18.230Z,57.20
2019-05-17T06:33:29.924Z,57.21
2019-05-17T06:35:21.858Z,57.43
2019-05-17T06:37:23.200Z,57.96
2019-05-17T06:39:24.797Z,57.83
2019-05-17T06:41:26.407Z,58.22
2019-05-17T06:43:27.999Z,58.06
2019-05-17T06:45:29.837Z,58.17
2019-05-17T06:47:32.837Z,58.15
2019-05-17T06:49:33.160Z,58.00
2019-05-17T06:51:35.470Z,57.85
2019-05-17T06:53:37.067Z,57.79
2019-05-17T06:55:38.666Z,57.71
2019-05-17T06:57:42.847Z,57.64
2019-05-17T06:59:42.028Z,57.56
2019-05-17T07:01:43.663Z,57.42
2019-05-17T07:03:45.274Z,57.31
2019-05-17T07:05:46.902Z,57.06
2019-05-17T07:07:49.835Z,57.01
2019-05-17T07:09:50.181Z,56.97
2019-05-17T07:11:51.781Z,57.02
2019-05-17T07:13:53.390Z,57.04
2019-05-17T07:15:55.017Z,57.02
2019-05-17T07:17:56.610Z,56.82
2019-05-17T07:19:59.726Z,56.60
2019-05-17T07:22:00.054Z,56.35
2019-05-17T07:24:01.534Z,56.24
2019-05-17T07:26:03.119Z,56.12
2019-05-17T07:28:04.725Z,56.13
2019-05-17T07:30:06.347Z,56.18
2019-05-17T07:32:09.818Z,56.24
2019-05-17T07:34:09.636Z,56.25
2019-05-17T07:36:11.287Z,56.23
2019-05-17T07:38:12.892Z,56.08
2019-05-17T07:40:14.554Z,56.00
2019-05-17T07:42:16.149Z,55.95
2019-05-17T07:44:17.732Z,55.67
2019-05-17T07:46:20.619Z,55.59
2019-05-17T07:48:20.968Z,55.38
2019-05-17T07:50:22.603Z,55.28
2019-05-17T07:52:24.237Z,55.14
2019-05-17T07:54:25.843Z,55.09
2019-05-17T07:56:27.482Z,54.95
2019-05-17T07:58:30.014Z,54.82
2019-05-17T08:00:30.761Z,54.66
2019-05-17T08:02:32.400Z,54.49
2019-05-17T08:04:34.007Z,54.58
2019-05-17T08:06:35.606Z,54.67
2019-05-17T08:08:37.254Z,54.64
2019-05-17T08:10:41.007Z,54.71
2019-05-17T08:12:41.132Z,54.81
2019-05-17T08:14:42.158Z,54.87
2019-05-17T08:16:43.739Z,54.87
2019-05-17T08:18:45.324Z,54.89
2019-05-17T08:20:46.968Z,54.93
2019-05-17T08:22:50.209Z,54.86
2019-05-17T08:24:50.281Z,54.68
2019-05-17T08:26:51.883Z,54.76
2019-05-17T08:28:53.488Z,54.87
2019-05-17T08:30:55.101Z,54.92
2019-05-17T08:32:56.765Z,54.84
2019-05-17T08:35:00.381Z,54.75
2019-05-17T08:37:01.046Z,54.75
2019-05-17T08:39:01.716Z,54.74
2019-05-17T08:41:03.360Z,54.69
2019-05-17T08:43:04.976Z,54.71
2019-05-17T08:45:06.621Z,54.78
2019-05-17T08:47:10.159Z,54.83
2019-05-17T08:49:09.918Z,54.89
2019-05-17T08:51:11.526Z,55.03
2019-05-17T08:53:13.120Z,55.11
2019-05-17T08:55:14.728Z,55.23
2019-05-17T08:57:16.340Z,55.30
2019-05-17T08:59:20.119Z,55.37
2019-05-17T09:01:19.767Z,55.42
2019-05-17T09:03:21.280Z,55.48
2019-05-17T09:05:22.892Z,55.43
2019-05-17T09:07:24.480Z,55.34
2019-05-17T09:09:26.088Z,55.15
2019-05-17T09:11:30.120Z,55.02
2019-05-17T09:13:29.962Z,55.04
2019-05-17T09:15:31.411Z,54.86
2019-05-17T09:17:33.043Z,54.82
2019-05-17T09:19:34.768Z,54.81
2019-05-17T09:21:36.380Z,54.74
2019-05-17T09:23:39.634Z,54.62
2019-05-17T09:25:39.972Z,54.55
2019-05-17T09:27:41.358Z,54.50
2019-05-17T09:29:43.012Z,54.55
2019-05-17T09:31:44.614Z,54.63
2019-05-17T09:33:46.243Z,54.75
2019-05-17T09:35:50.038Z,54.88
2019-05-17T09:37:50.268Z,54.92
2019-05-17T09:39:51.884Z,55.03
2019-05-17T09:41:53.503Z,55.11
2019-05-17T09:44:08.727Z,55.12
2019-05-17T09:45:56.806Z,55.08
2019-05-17T09:48:00.627Z,54.95
2019-05-17T09:50:00.640Z,54.90
2019-05-17T09:52:02.385Z,55.00
2019-05-17T09:54:04.020Z,55.04
2019-05-17T09:56:05.666Z,55.17
2019-05-17T09:58:09.630Z,55.23
2019-05-17T10:00:09.889Z,55.26
2019-05-17T10:02:10.617Z,55.34
2019-05-17T10:04:13.650Z,55.30
2019-05-17T10:06:13.955Z,55.23
2019-05-17T10:08:15.566Z,55.22
2019-05-17T10:10:17.171Z,55.22
2019-05-17T10:12:20.297Z,55.12
2019-05-17T10:14:28.141Z,55.02
2019-05-17T10:16:22.123Z,55.04
2019-05-17T10:18:23.722Z,55.09
2019-05-17T10:20:25.328Z,55.12
2019-05-17T10:22:26.922Z,55.21
2019-05-17T10:24:37.984Z,55.25
2019-05-17T10:26:30.446Z,55.21
2019-05-17T10:28:31.853Z,55.08
2019-05-17T10:30:33.439Z,54.98
2019-05-17T10:32:35.048Z,54.98
2019-05-17T10:34:36.650Z,55.07
2019-05-17T10:36:40.185Z,55.04
2019-05-17T10:38:39.954Z,55.01
2019-05-17T10:40:41.549Z,54.89
2019-05-17T10:42:43.145Z,54.78
2019-05-17T10:44:47.771Z,54.74
2019-05-17T10:46:46.400Z,54.76
2019-05-17T10:48:50.023Z,54.58
2019-05-17T10:50:49.804Z,54.55
2019-05-17T10:52:51.348Z,54.46
2019-05-17T10:54:53.691Z,54.39
2019-05-17T10:56:55.317Z,54.34
2019-05-17T10:58:56.926Z,54.32
2019-05-17T11:01:00.574Z,54.36
2019-05-17T11:03:00.580Z,54.47
2019-05-17T11:05:01.877Z,54.57
2019-05-17T11:07:04.350Z,54.52
2019-05-17T11:09:05.161Z,54.42
2019-05-17T11:11:06.776Z,54.40
2019-05-17T11:13:08.390Z,54.38
2019-05-17T11:15:11.773Z,54.38
2019-05-17T11:17:11.692Z,54.51
2019-05-17T11:19:13.305Z,54.66
2019-05-17T11:21:14.919Z,54.77
2019-05-17T11:23:16.551Z,54.96
2019-05-17T11:25:18.184Z,55.06
2019-05-17T11:27:19.836Z,55.08
2019-05-17T11:29:21.449Z,55.10
2019-05-17T11:31:23.082Z,55.12
2019-05-17T11:33:24.687Z,55.16
2019-05-17T11:35:26.300Z,55.15
2019-05-17T11:37:27.939Z,55.15
2019-05-17T11:39:29.534Z,55.11
2019-05-17T11:41:31.162Z,54.97
2019-05-17T11:43:32.775Z,54.85
2019-05-17T11:45:34.417Z,54.64
2019-05-17T11:47:36.023Z,54.45
2019-05-17T11:49:37.627Z,54.33
2019-05-17T11:51:39.267Z,54.25
2019-05-17T11:53:40.903Z,54.06
2019-05-17T11:55:42.499Z,53.79
2019-05-17T11:57:44.115Z,53.85
2019-05-17T11:59:45.922Z,53.83
2019-05-17T12:01:47.506Z,53.95
2019-05-17T12:03:49.112Z,54.18
2019-05-17T12:05:50.747Z,54.47
2019-05-17T12:07:52.341Z,54.76
2019-05-17T12:09:53.928Z,54.90
2019-05-17T12:11:55.522Z,54.99
2019-05-17T12:13:57.140Z,55.02
2019-05-17T12:15:58.784Z,55.05
2019-05-17T12:18:00.373Z,54.82
2019-05-17T12:20:02.062Z,54.89
2019-05-17T12:22:03.662Z,54.63
2019-05-17T12:24:05.315Z,54.51
2019-05-17T12:26:06.962Z,54.53
2019-05-17T12:28:08.557Z,54.59
2019-05-17T12:30:10.221Z,54.63
2019-05-17T12:32:16.793Z,54.82
2019-05-17T12:34:13.613Z,54.99
2019-05-17T12:36:15.210Z,55.08
2019-05-17T12:38:16.816Z,55.08
2019-05-17T12:40:18.442Z,55.03
2019-05-17T12:42:20.048Z,55.01
2019-05-17T12:44:21.650Z,55.07
2019-05-17T12:46:23.250Z,55.06
2019-05-17T12:48:24.882Z,54.66
2019-05-17T12:50:26.472Z,54.46
2019-05-17T12:52:28.102Z,54.47
2019-05-17T12:54:29.698Z,54.30
2019-05-17T12:56:31.345Z,54.17
2019-05-17T12:58:32.989Z,54.30
2019-05-17T13:00:34.581Z,54.16
2019-05-17T13:02:36.201Z,54.09
2019-05-17T13:04:37.799Z,54.23
2019-05-17T13:06:39.394Z,54.19
2019-05-17T13:08:41.103Z,54.26
2019-05-17T13:10:43.384Z,54.24
2019-05-17T13:12:45.144Z,54.30
2019-05-17T13:14:46.751Z,54.70
2019-05-17T13:16:48.350Z,54.56
2019-05-17T13:18:49.961Z,54.46
2019-05-17T13:20:51.569Z,54.76
2019-05-17T13:22:53.219Z,55.03
2019-05-17T13:24:54.809Z,55.15
2019-05-17T13:26:56.416Z,55.20
2019-05-17T13:28:58.060Z,55.17
2019-05-17T13:31:00.144Z,55.21
2019-05-17T13:33:01.794Z,55.13
2019-05-17T13:35:03.410Z,55.38
2019-05-17T13:37:05.001Z,55.50
2019-05-17T13:39:06.611Z,55.54
2019-05-17T13:41:08.206Z,55.61
2019-05-17T13:43:09.842Z,55.36
2019-05-17T13:45:11.451Z,55.43
2019-05-17T13:47:13.064Z,55.45
2019-05-17T13:49:14.676Z,55.52
2019-05-17T13:51:16.288Z,55.44
2019-05-17T13:53:17.936Z,55.37
2019-05-17T13:55:19.536Z,55.54
2019-05-17T13:57:21.149Z,55.35
2019-05-17T13:59:22.786Z,55.26
2019-05-17T14:01:24.433Z,55.34
2019-05-17T14:03:26.044Z,55.47
2019-05-17T14:05:27.699Z,55.66
2019-05-17T14:07:29.309Z,55.70
2019-05-17T14:09:30.931Z,55.69
2019-05-17T14:11:32.563Z,55.73
2019-05-17T14:13:34.186Z,55.78
2019-05-17T14:15:35.830Z,55.80
2019-05-17T14:17:37.441Z,55.76
2019-05-17T14:19:39.030Z,55.75
2019-05-17T14:21:40.635Z,55.75
2019-05-17T14:23:43.039Z,55.75
2019-05-17T14:25:44.627Z,55.72
2019-05-17T14:27:46.245Z,55.71
2019-05-17T14:29:47.846Z,55.75
2019-05-17T14:31:49.457Z,55.77
2019-05-17T14:33:51.084Z,55.77
2019-05-17T14:35:52.713Z,55.78
2019-05-17T14:37:54.337Z,55.83
2019-05-17T14:39:55.992Z,55.89
2019-05-17T14:41:57.586Z,55.89
2019-05-17T14:43:59.242Z,55.92
2019-05-17T14:46:00.897Z,55.92
2019-05-17T14:48:02.588Z,56.00
2019-05-17T14:50:04.777Z,56.01
2019-05-17T14:52:06.433Z,56.05
2019-05-17T14:54:08.045Z,56.17
2019-05-17T14:56:09.698Z,56.07
2019-05-17T14:58:11.319Z,56.08
2019-05-17T15:00:12.944Z,56.04
2019-05-17T15:02:14.563Z,55.98
2019-05-17T15:04:16.172Z,56.03
2019-05-17T15:06:17.803Z,56.05
2019-05-17T15:08:19.406Z,56.01
2019-05-17T15:10:21.038Z,56.03
2019-05-17T15:12:28.444Z,56.07
2019-05-17T15:14:24.337Z,56.04
2019-05-17T15:16:25.935Z,56.09
2019-05-17T15:18:27.622Z,56.13
2019-05-17T15:20:29.300Z,56.14
2019-05-17T15:22:30.936Z,56.11
2019-05-17T15:24:32.548Z,56.18
2019-05-17T15:26:35.799Z,56.13
2019-05-17T15:28:35.817Z,56.17
2019-05-17T15:30:37.454Z,56.16
2019-05-17T15:32:39.066Z,56.10
2019-05-17T15:34:40.684Z,56.12
2019-05-17T15:36:42.301Z,56.08
2019-05-17T15:38:43.898Z,56.12
2019-05-17T15:40:45.534Z,56.11
2019-05-17T15:42:47.152Z,56.10
2019-05-17T15:44:48.833Z,56.14
2019-05-17T15:46:50.426Z,56.13
2019-05-17T15:48:52.043Z,56.14
2019-05-17T15:50:53.711Z,56.16
2019-05-17T15:52:55.318Z,56.18
2019-05-17T15:54:56.918Z,56.19
2019-05-17T15:56:58.530Z,56.19
2019-05-17T15:59:00.178Z,56.19
2019-05-17T16:01:01.861Z,56.20
2019-05-17T16:03:03.514Z,56.21
2019-05-17T16:05:05.128Z,56.20
2019-05-17T16:07:06.765Z,56.20
2019-05-17T16:09:08.383Z,56.21
2019-05-17T16:11:10.028Z,56.22
2019-05-17T16:13:11.656Z,56.23
2019-05-17T16:15:13.268Z,56.25
2019-05-17T16:17:14.916Z,56.24
2019-05-17T16:19:16.532Z,56.25
2019-05-17T16:21:18.135Z,56.24
2019-05-17T16:23:19.776Z,56.27
2019-05-17T16:25:21.373Z,56.28
2019-05-17T16:27:23.056Z,56.29
2019-05-17T16:29:24.702Z,56.31
2019-05-17T16:31:26.290Z,56.32
2019-05-17T16:33:28.126Z,56.33
2019-05-17T16:35:29.754Z,56.34
2019-05-17T16:37:31.384Z,56.35
2019-05-17T16:39:32.983Z,56.35
2019-05-17T16:41:34.567Z,56.36
2019-05-17T16:43:36.163Z,56.38
2019-05-17T16:45:37.804Z,56.39
2019-05-17T16:47:39.403Z,56.40
2019-05-17T16:49:41.003Z,56.40
2019-05-17T16:51:42.607Z,56.41
2019-05-17T16:53:44.207Z,56.41
2019-05-17T16:55:45.807Z,56.40
2019-05-17T16:57:47.414Z,56.41
2019-05-17T16:59:49.000Z,56.39
2019-05-17T17:01:50.594Z,56.40
2019-05-17T17:03:52.219Z,56.40
2019-05-17T17:05:53.849Z,56.44
2019-05-17T17:07:55.438Z,56.45
2019-05-17T17:09:57.047Z,56.43
2019-05-17T17:11:58.629Z,56.50
2019-05-17T17:14:00.262Z,56.52
2019-05-17T17:16:02.091Z,56.53
2019-05-17T17:18:03.622Z,56.54
2019-05-17T17:20:05.327Z,56.55
2019-05-17T17:22:06.941Z,56.05
2019-05-17T17:24:08.545Z,55.82
2019-05-17T17:26:10.168Z,54.65
2019-05-17T17:28:11.784Z,53.96
2019-05-17T17:30:13.510Z,53.65
2019-05-17T17:32:21.478Z,53.57
2019-05-17T17:34:16.748Z,52.72
2019-05-17T17:36:19.554Z,52.74
2019-05-17T17:38:20.013Z,52.15
2019-05-17T17:40:21.628Z,51.74
2019-05-17T17:42:23.276Z,51.92
2019-05-17T17:44:24.879Z,52.17
2019-05-17T17:46:26.510Z,51.81
2019-05-17T17:48:28.114Z,52.15
2019-05-17T17:50:29.706Z,52.02
2019-05-17T17:52:31.361Z,52.66
2019-05-17T17:54:32.980Z,52.83
2019-05-17T17:56:34.688Z,52.75
2019-05-17T17:58:36.375Z,52.83
2019-05-17T18:00:37.983Z,53.20
2019-05-17T18:02:39.709Z,53.22
2019-05-17T18:04:41.296Z,53.54
2019-05-17T18:06:42.951Z,53.52
2019-05-17T18:08:44.634Z,54.18
2019-05-17T18:10:46.763Z,52.88
2019-05-17T18:12:47.949Z,53.90
2019-05-17T18:14:49.547Z,53.59
2019-05-17T18:16:51.205Z,53.43
2019-05-17T18:18:52.900Z,53.14
2019-05-17T18:20:54.570Z,53.02
2019-05-17T18:22:56.220Z,53.34
2019-05-17T18:24:57.829Z,54.08
2019-05-17T18:26:59.508Z,54.46
2019-05-17T18:29:01.102Z,53.69
2019-05-17T18:31:02.717Z,53.85
2019-05-17T18:33:04.368Z,53.77
2019-05-17T18:35:06.040Z,53.70
2019-05-17T18:37:07.676Z,53.97
2019-05-17T18:39:09.296Z,54.06
2019-05-17T18:41:11.004Z,54.36
2019-05-17T18:43:12.656Z,54.38
2019-05-17T18:45:14.306Z,54.09
2019-05-17T18:47:15.911Z,53.95
2019-05-17T18:49:17.542Z,53.74
2019-05-17T18:51:19.128Z,53.94
2019-05-17T18:53:20.787Z,53.98
2019-05-17T18:55:22.406Z,54.07
2019-05-17T18:57:24.014Z,53.87
2019-05-17T18:59:25.648Z,53.97
2019-05-17T19:01:27.269Z,53.44
2019-05-17T19:03:28.876Z,53.23
2019-05-17T19:05:30.496Z,53.71
2019-05-17T19:07:32.127Z,53.66
2019-05-17T19:09:33.746Z,53.95
2019-05-17T19:11:35.342Z,53.65
2019-05-17T19:13:36.947Z,53.28
2019-05-17T19:15:38.572Z,53.39
2019-05-17T19:17:40.173Z,53.48
2019-05-17T19:19:41.806Z,53.32
2019-05-17T19:21:43.413Z,53.57
2019-05-17T19:23:45.014Z,53.47
2019-05-17T19:25:46.686Z,53.50
2019-05-17T19:27:48.276Z,53.39
2019-05-17T19:29:49.878Z,53.27
2019-05-17T19:31:51.509Z,53.20
2019-05-17T19:33:53.105Z,53.75
2019-05-17T19:35:54.766Z,53.61
2019-05-17T19:37:56.373Z,53.25
2019-05-17T19:39:57.996Z,53.70
2019-05-17T19:41:59.603Z,53.95
2019-05-17T19:44:01.216Z,54.11
2019-05-17T19:46:02.828Z,54.56
2019-05-17T19:48:04.464Z,54.48
2019-05-17T19:50:06.092Z,54.67
2019-05-17T19:52:07.700Z,54.81
2019-05-17T19:54:09.312Z,54.87
2019-05-17T19:56:10.914Z,54.95
2019-05-17T19:58:12.511Z,55.00
2019-05-17T20:00:14.113Z,54.94
2019-05-17T20:02:15.812Z,54.58
2019-05-17T20:04:17.448Z,54.90
2019-05-17T20:06:19.100Z,54.90
2019-05-17T20:08:20.712Z,53.89
2019-05-17T20:10:22.354Z,53.30
2019-05-17T20:12:24.005Z,53.05
2019-05-17T20:14:25.593Z,53.10
2019-05-17T20:16:27.233Z,52.78
2019-05-17T20:18:28.820Z,52.81
2019-05-17T20:20:30.412Z,53.31
2019-05-17T20:22:32.048Z,52.97
2019-05-17T20:24:33.655Z,52.93
2019-05-17T20:26:35.262Z,52.99
2019-05-17T20:28:36.859Z,53.43
2019-05-17T20:30:38.490Z,53.48
2019-05-17T20:32:40.109Z,53.25
2019-05-17T20:34:41.716Z,53.51
2019-05-17T20:36:43.312Z,53.43
2019-05-17T20:38:44.924Z,53.71
2019-05-17T20:40:46.558Z,53.56
2019-05-17T20:42:48.187Z,53.67
2019-05-17T20:44:49.831Z,53.72
2019-05-17T20:46:51.467Z,54.07
2019-05-17T20:48:53.051Z,53.87
2019-05-17T20:50:54.702Z,54.39
2019-05-17T20:52:56.340Z,54.38
2019-05-17T20:54:57.938Z,54.70
2019-05-17T20:56:59.538Z,54.61
2019-05-17T20:59:01.148Z,54.48
2019-05-17T21:01:02.770Z,54.71
2019-05-17T21:03:05.151Z,55.25
2019-05-17T21:05:06.793Z,55.00
2019-05-17T21:07:08.445Z,54.35
2019-05-17T21:09:10.081Z,54.74
2019-05-17T21:11:11.682Z,54.41
2019-05-17T21:13:13.282Z,54.07
2019-05-17T21:15:14.953Z,54.62
2019-05-17T21:17:16.581Z,54.81
2019-05-17T21:19:18.242Z,54.62
2019-05-17T21:21:19.876Z,54.68
2019-05-17T21:23:21.472Z,54.64
2019-05-17T21:25:23.218Z,54.59
2019-05-17T21:27:24.813Z,54.87
2019-05-17T21:29:26.425Z,54.71
2019-05-17T21:31:28.041Z,54.95
2019-05-17T21:33:29.648Z,54.91
2019-05-17T21:35:31.280Z,54.84
2019-05-17T21:37:32.899Z,54.91
2019-05-17T21:39:34.507Z,54.85
2019-05-17T21:41:36.093Z,54.64
2019-05-17T21:43:37.689Z,54.85
2019-05-17T21:45:39.305Z,55.02
2019-05-17T21:47:40.942Z,55.26
2019-05-17T21:49:42.552Z,55.12
2019-05-17T21:51:44.182Z,55.08
2019-05-17T21:53:45.795Z,55.39
2019-05-17T21:55:47.384Z,55.10
2019-05-17T21:57:49.079Z,55.30
2019-05-17T21:59:50.720Z,54.37
2019-05-17T22:01:52.396Z,55.36
2019-05-17T22:03:53.994Z,55.46
2019-05-17T22:05:55.594Z,55.29
2019-05-17T22:07:57.194Z,55.31
2019-05-17T22:09:58.794Z,55.45
2019-05-17T22:12:01.176Z,55.20
2019-05-17T22:14:02.785Z,55.24
2019-05-17T22:16:18.523Z,55.01
2019-05-17T22:18:06.098Z,55.02
2019-05-17T22:20:07.704Z,55.40
2019-05-17T22:22:09.306Z,55.88
2019-05-17T22:24:10.957Z,56.40
2019-05-17T22:26:12.568Z,55.61
2019-05-17T22:28:14.199Z,54.90
2019-05-17T22:30:15.799Z,54.87
2019-05-17T22:32:17.439Z,55.48
2019-05-17T22:34:19.038Z,55.30
2019-05-17T22:36:20.652Z,55.00
2019-05-17T22:38:22.294Z,55.00
2019-05-17T22:40:23.890Z,54.17
2019-05-17T22:42:25.499Z,54.67
2019-05-17T22:44:27.102Z,54.61
2019-05-17T22:46:36.223Z,55.03
2019-05-17T22:48:30.369Z,55.27
2019-05-17T22:50:31.967Z,54.94
2019-05-17T22:52:33.603Z,54.98
2019-05-17T22:54:35.201Z,54.85
2019-05-17T22:56:36.855Z,54.94
2019-05-17T22:58:38.440Z,55.17
2019-05-17T23:00:40.116Z,55.23
2019-05-17T23:02:41.724Z,55.90
2019-05-17T23:04:43.419Z,56.31
2019-05-17T23:06:45.027Z,56.45
2019-05-17T23:08:46.630Z,56.62
2019-05-17T23:10:48.256Z,56.12
2019-05-17T23:12:49.852Z,55.42
2019-05-17T23:14:51.461Z,56.17
2019-05-17T23:16:53.110Z,56.55
2019-05-17T23:19:00.313Z,56.88
2019-05-17T23:21:01.960Z,57.06
2019-05-17T23:23:03.562Z,57.07
2019-05-17T23:25:05.158Z,57.17
2019-05-17T23:27:06.766Z,57.42
2019-05-17T23:29:08.440Z,57.59
2019-05-17T23:31:10.042Z,57.68
2019-05-17T23:33:11.629Z,57.94
2019-05-17T23:35:13.258Z,57.93
2019-05-17T23:37:14.854Z,58.08
2019-05-17T23:39:16.496Z,58.19
2019-05-17T23:41:18.094Z,58.33
2019-05-17T23:43:19.712Z,58.42
2019-05-17T23:45:21.324Z,58.27
2019-05-17T23:47:22.972Z,58.38
2019-05-17T23:49:24.556Z,58.44
2019-05-17T23:51:26.140Z,58.59
2019-05-17T23:53:27.779Z,58.77
2019-05-17T23:55:29.401Z,58.76
2019-05-17T23:57:31.012Z,58.83
2019-05-17T23:59:32.596Z,59.04
